Time;durP1;ratioP1;P1;durP2;ratioP2;P2;SDS_P1;SDS_P2;PMS_P1;PMS_P2;Temp;Humidity;BMP_temperature;BMP_pressure;BME280_temperature;BME280_humidity;BME280_pressure;Samples;Min_cycle;Max_cycle;Signal;HPM_P1;HPM_P2
2023/04/23 00:00:41;;;;;;;0.10;0.10;;;6.60;99.90;;;;;;4947806;28;20559;-72
2023/04/23 00:03:11;;;;;;;0.03;0.03;;;7.60;99.90;;;;;;4962219;28;20498;-73
2023/04/23 00:05:38;;;;;;;0.10;0.10;;;7.60;99.90;;;;;;4962955;28;20031;-73
2023/04/23 00:08:04;;;;;;;0.00;0.00;;;7.60;99.90;;;;;;4964262;28;20284;-71
2023/04/23 00:10:31;;;;;;;0.00;0.00;;;7.70;99.90;;;;;;4963283;28;20356;-75
2023/04/23 00:12:57;;;;;;;0.10;0.10;;;7.70;99.90;;;;;;4946213;28;20023;-73
2023/04/23 00:15:25;;;;;;;0.00;0.00;;;7.70;99.90;;;;;;4964283;28;20031;-73
2023/04/23 00:17:50;;;;;;;0.00;0.00;;;7.70;99.90;;;;;;4963338;28;20054;-72
2023/04/23 00:20:16;;;;;;;0.00;0.00;;;7.60;99.90;;;;;;4946264;28;20051;-73
2023/04/23 00:22:43;;;;;;;0.00;0.00;;;7.50;99.90;;;;;;4964060;28;20015;-72
2023/04/23 00:25:09;;;;;;;0.08;0.08;;;7.60;99.90;;;;;;4967960;28;20034;-73
2023/04/23 00:27:38;;;;;;;0.10;0.10;;;7.50;99.90;;;;;;4961914;28;20019;-72
2023/04/23 00:30:05;;;;;;;0.10;0.10;;;7.50;99.90;;;;;;4961422;28;20052;-71
2023/04/23 00:32:31;;;;;;;0.00;0.00;;;7.50;99.90;;;;;;4943904;28;20042;-72
2023/04/23 00:34:57;;;;;;;0.10;0.10;;;7.40;99.90;;;;;;4961120;28;20027;-72
2023/04/23 00:37:23;;;;;;;0.08;0.08;;;7.40;99.90;;;;;;4961442;28;20532;-73
2023/04/23 00:39:49;;;;;;;0.52;0.52;;;7.40;99.90;;;;;;4961243;28;20039;-71
2023/04/23 00:42:16;;;;;;;0.00;0.00;;;7.40;99.90;;;;;;4961219;28;20054;-73
2023/04/23 00:44:42;;;;;;;0.00;0.00;;;7.40;99.90;;;;;;4963101;28;20022;-72
2023/04/23 00:47:08;;;;;;;0.10;0.10;;;7.40;99.90;;;;;;4945475;28;20031;-72
2023/04/23 00:49:35;;;;;;;0.10;0.10;;;7.40;99.90;;;;;;4965698;28;20062;-75
2023/04/23 00:52:01;;;;;;;0.00;0.00;;;7.30;99.90;;;;;;4962565;28;20039;-72
2023/04/23 00:54:28;;;;;;;0.10;0.10;;;7.20;99.90;;;;;;4962628;28;20031;-73
2023/04/23 00:56:56;;;;;;;0.10;0.10;;;7.20;99.90;;;;;;4945831;28;20027;-72
2023/04/23 00:59:26;;;;;;;0.00;0.00;;;7.20;99.90;;;;;;4968136;28;20115;-73
2023/04/23 01:01:53;;;;;;;0.00;0.00;;;7.20;99.90;;;;;;4966887;28;20061;-73
2023/04/23 01:04:21;;;;;;;0.10;0.10;;;7.10;99.90;;;;;;4966394;28;20027;-73
2023/04/23 01:06:48;;;;;;;0.00;0.00;;;7.10;99.90;;;;;;4969150;28;20137;-72
2023/04/23 01:09:16;;;;;;;0.10;0.10;;;7.00;99.90;;;;;;4969273;28;20023;-73
2023/04/23 01:11:45;;;;;;;0.10;0.10;;;7.00;99.90;;;;;;4967968;28;20049;-73
2023/04/23 01:14:11;;;;;;;0.00;0.00;;;7.00;99.90;;;;;;4968319;28;20474;-74
2023/04/23 01:16:37;;;;;;;0.03;0.03;;;7.00;99.90;;;;;;4966953;28;20110;-74
2023/04/23 01:19:08;;;;;;;0.10;0.10;;;6.90;99.90;;;;;;4967475;28;20034;-72
2023/04/23 01:21:36;;;;;;;0.00;0.00;;;7.00;99.90;;;;;;4966853;28;20057;-73
2023/04/23 01:24:04;;;;;;;0.00;0.00;;;6.90;99.90;;;;;;4966531;28;20023;-72
2023/04/23 01:26:30;;;;;;;0.10;0.10;;;6.90;99.90;;;;;;4968347;28;20353;-75
2023/04/23 01:28:57;;;;;;;0.03;0.03;;;6.90;99.90;;;;;;4966852;28;20088;-72
2023/04/23 01:31:23;;;;;;;0.10;0.10;;;6.90;99.90;;;;;;4967272;28;20038;-75
2023/04/23 01:33:54;;;;;;;0.10;0.10;;;6.90;99.90;;;;;;4965447;28;20037;-75
2023/04/23 01:36:24;;;;;;;0.00;0.00;;;6.90;99.90;;;;;;4965834;28;20035;-73
2023/04/23 01:38:50;;;;;;;0.00;0.00;;;6.80;99.90;;;;;;4966190;28;20023;-75
2023/04/23 01:41:17;;;;;;;0.00;0.00;;;6.80;99.90;;;;;;4964798;28;20112;-72
2023/04/23 01:43:44;;;;;;;0.05;0.05;;;6.80;99.90;;;;;;4944967;28;20142;-72
2023/04/23 01:46:10;;;;;;;0.00;0.00;;;6.90;99.90;;;;;;4963520;28;20313;-73
2023/04/23 01:48:37;;;;;;;0.10;0.10;;;6.80;99.90;;;;;;4948994;28;20470;-73
2023/04/23 01:51:03;;;;;;;0.05;0.05;;;6.80;99.90;;;;;;4963208;28;20602;-73
2023/04/23 01:53:29;;;;;;;0.03;0.03;;;6.80;99.90;;;;;;4945198;28;20026;-73
2023/04/23 01:55:55;;;;;;;0.68;0.68;;;6.80;99.90;;;;;;4966106;28;20634;-73
2023/04/23 01:58:22;;;;;;;0.00;0.00;;;6.80;99.90;;;;;;4947986;28;20260;-72
2023/04/23 02:00:49;;;;;;;0.00;0.00;;;6.80;99.90;;;;;;4966160;28;20109;-74
2023/04/23 02:03:15;;;;;;;0.20;0.20;;;6.80;99.90;;;;;;4968041;28;20038;-73
2023/04/23 02:05:41;;;;;;;0.15;0.15;;;6.80;99.90;;;;;;4947493;28;20022;-75
2023/04/23 02:08:08;;;;;;;0.00;0.00;;;6.80;99.90;;;;;;4946840;28;20363;-71
2023/04/23 02:10:33;;;;;;;0.82;0.82;;;6.70;99.90;;;;;;4965587;28;20039;-72
2023/04/23 02:13:03;;;;;;;0.00;0.00;;;6.70;99.90;;;;;;4962663;28;20222;-73
2023/04/23 02:15:31;;;;;;;0.00;0.00;;;6.70;99.90;;;;;;4962356;28;20107;-72
2023/04/23 02:17:57;;;;;;;0.00;0.00;;;6.70;99.90;;;;;;4961149;28;20105;-73
2023/04/23 02:20:23;;;;;;;0.00;0.00;;;6.80;99.90;;;;;;4961251;28;20058;-73
2023/04/23 02:22:49;;;;;;;0.05;0.05;;;6.70;99.90;;;;;;4961103;28;20544;-73
2023/04/23 02:25:16;;;;;;;0.00;0.00;;;6.70;99.90;;;;;;4944048;28;20039;-73
2023/04/23 02:27:43;;;;;;;0.10;0.10;;;6.60;99.90;;;;;;4961361;28;20514;-73
2023/04/23 02:30:10;;;;;;;0.10;0.10;;;6.60;99.90;;;;;;4960908;28;20035;-72
2023/04/23 02:32:36;;;;;;;0.10;0.10;;;6.60;99.90;;;;;;4942619;28;20027;-73
2023/04/23 02:35:05;;;;;;;0.00;0.00;;;6.60;99.90;;;;;;4960126;28;20220;-74
2023/04/23 02:37:32;;;;;;;0.00;0.00;;;6.60;99.90;;;;;;4943534;28;20721;-72
2023/04/23 02:40:00;;;;;;;0.00;0.00;;;6.60;99.90;;;;;;4959687;28;20172;-72
2023/04/23 02:42:26;;;;;;;0.10;0.10;;;6.40;99.90;;;;;;4965509;28;20466;-74
2023/04/23 02:44:52;;;;;;;0.00;0.00;;;6.50;99.90;;;;;;4950810;28;20198;-72
2023/04/23 02:47:18;;;;;;;0.10;0.10;;;6.50;99.90;;;;;;4967997;28;20023;-72
2023/04/23 02:49:43;;;;;;;0.10;0.10;;;6.50;99.90;;;;;;4968642;28;20031;-73
2023/04/23 02:52:09;;;;;;;0.10;0.10;;;7.10;99.90;;;;;;4968056;28;20236;-72
2023/04/23 02:54:38;;;;;;;0.10;0.10;;;6.40;99.90;;;;;;4964164;28;20524;-73
2023/04/23 02:57:04;;;;;;;0.10;0.10;;;6.40;99.90;;;;;;4961846;28;20030;-73
2023/04/23 02:59:30;;;;;;;0.10;0.10;;;6.40;99.90;;;;;;4963650;28;20509;-73
2023/04/23 03:01:55;;;;;;;0.10;0.10;;;6.40;99.90;;;;;;4962722;28;20026;-74
2023/04/23 03:04:21;;;;;;;0.10;0.10;;;6.40;99.90;;;;;;4962169;28;20122;-72
2023/04/23 03:06:47;;;;;;;0.20;0.20;;;6.40;99.90;;;;;;4962289;28;20292;-74
2023/04/23 03:09:14;;;;;;;0.10;0.10;;;6.30;99.90;;;;;;4961888;28;20050;-74
2023/04/23 03:11:39;;;;;;;0.10;0.10;;;6.20;99.90;;;;;;4962363;28;20035;-72
2023/04/23 03:14:05;;;;;;;0.05;0.05;;;7.70;99.90;;;;;;4963098;28;20520;-72
2023/04/23 03:16:31;;;;;;;0.10;0.10;;;6.20;99.90;;;;;;4964065;28;20035;-73
2023/04/23 03:18:58;;;;;;;0.10;0.10;;;6.20;99.90;;;;;;4963777;28;20046;-73
2023/04/23 03:21:24;;;;;;;0.10;0.10;;;6.30;99.90;;;;;;4964063;28;20641;-76
2023/04/23 03:23:49;;;;;;;0.00;0.00;;;6.20;99.90;;;;;;4966063;28;20019;-73
2023/04/23 03:26:15;;;;;;;0.10;0.10;;;6.20;99.90;;;;;;4966135;28;20023;-74
2023/04/23 03:28:41;;;;;;;0.10;0.10;;;6.20;99.90;;;;;;4962843;28;20426;-72
2023/04/23 03:31:07;;;;;;;0.10;0.10;;;6.20;99.90;;;;;;4962560;28;20730;-74
2023/04/23 03:33:32;;;;;;;0.20;0.20;;;6.10;99.90;;;;;;4961811;28;20058;-72
2023/04/23 03:35:58;;;;;;;0.10;0.10;;;6.10;99.90;;;;;;4944814;28;20600;-72
2023/04/23 03:38:24;;;;;;;0.10;0.10;;;6.10;99.90;;;;;;4967156;28;20031;-70
2023/04/23 03:40:50;;;;;;;0.10;0.10;;;6.10;99.90;;;;;;4948290;28;20097;-73
2023/04/23 03:43:16;;;;;;;0.10;0.10;;;6.10;99.90;;;;;;4966473;28;20106;-72
2023/04/23 03:45:41;;;;;;;0.10;0.10;;;6.10;99.90;;;;;;4964240;28;20521;-72
2023/04/23 03:48:07;;;;;;;0.10;0.10;;;6.10;99.90;;;;;;4966695;28;20034;-73
2023/04/23 03:50:37;;;;;;;0.10;0.10;;;6.00;99.90;;;;;;4966733;28;20193;-74
2023/04/23 03:53:04;;;;;;;0.10;0.10;;;6.10;99.90;;;;;;4966312;28;20231;-72
2023/04/23 03:55:30;;;;;;;0.32;0.32;;;6.10;99.90;;;;;;4949252;28;20035;-72
2023/04/23 03:57:59;;;;;;;0.00;0.00;;;6.10;99.90;;;;;;4968024;28;20023;-72
2023/04/23 04:00:24;;;;;;;0.10;0.10;;;6.10;99.90;;;;;;4947956;28;20039;-72
2023/04/23 04:02:50;;;;;;;0.10;0.10;;;6.00;99.90;;;;;;4964304;28;20090;-76
2023/04/23 04:05:16;;;;;;;0.10;0.10;;;6.00;99.90;;;;;;4964232;28;20121;-72
2023/04/23 04:07:42;;;;;;;0.10;0.10;;;6.00;99.90;;;;;;4964356;28;20023;-74
2023/04/23 04:10:08;;;;;;;0.05;0.05;;;6.00;99.90;;;;;;4964152;28;20062;-75
2023/04/23 04:12:35;;;;;;;1.45;1.45;;;6.10;99.90;;;;;;4963881;28;20145;-74
2023/04/23 04:15:02;;;;;;;0.10;0.10;;;6.00;99.90;;;;;;4946843;28;20143;-73
2023/04/23 04:17:28;;;;;;;0.00;0.00;;;6.00;99.90;;;;;;4963985;28;20027;-74
2023/04/23 04:19:53;;;;;;;0.10;0.10;;;6.00;99.90;;;;;;4964482;28;20051;-72
2023/04/23 04:22:19;;;;;;;0.05;0.05;;;6.00;99.90;;;;;;4964295;28;20093;-72
2023/04/23 04:24:46;;;;;;;0.08;0.08;;;6.00;99.90;;;;;;4965043;28;20038;-72
2023/04/23 04:27:12;;;;;;;0.10;0.10;;;6.00;99.90;;;;;;4964971;28;20524;-76
2023/04/23 04:29:39;;;;;;;0.40;0.40;;;5.90;99.90;;;;;;4964373;28;20154;-73
2023/04/23 04:32:07;;;;;;;0.10;0.10;;;6.00;99.90;;;;;;4964305;28;20356;-72
2023/04/23 04:34:35;;;;;;;0.05;0.05;;;6.00;99.90;;;;;;4965919;28;20026;-74
2023/04/23 04:37:00;;;;;;;0.00;0.00;;;6.10;99.90;;;;;;4965062;28;20532;-73
2023/04/23 04:39:26;;;;;;;0.08;0.08;;;6.00;99.90;;;;;;4965467;28;20178;-74
2023/04/23 04:41:53;;;;;;;0.00;0.00;;;6.00;99.90;;;;;;4964993;28;20093;-72
2023/04/23 04:44:19;;;;;;;0.10;0.10;;;6.00;99.90;;;;;;4962656;28;20367;-74
2023/04/23 04:46:44;;;;;;;0.00;0.00;;;6.00;99.90;;;;;;4963070;28;20655;-73
2023/04/23 04:49:11;;;;;;;0.30;0.30;;;6.10;99.90;;;;;;4962091;28;20035;-73
2023/04/23 04:51:39;;;;;;;0.10;0.10;;;6.10;99.90;;;;;;4945057;28;20517;-72
2023/04/23 04:54:06;;;;;;;0.35;0.35;;;6.20;99.90;;;;;;4962718;28;20023;-72
2023/04/23 04:56:33;;;;;;;0.10;0.10;;;6.20;99.90;;;;;;4962306;28;20343;-73
2023/04/23 04:58:59;;;;;;;0.10;0.10;;;6.30;99.90;;;;;;4961662;28;20042;-73
2023/04/23 05:01:27;;;;;;;0.10;0.10;;;6.50;99.90;;;;;;4961466;28;20053;-72
2023/04/23 05:03:54;;;;;;;0.00;0.00;;;6.50;99.90;;;;;;4961283;28;20031;-71
2023/04/23 05:06:20;;;;;;;0.10;0.10;;;6.60;99.90;;;;;;4943592;28;20030;-72
2023/04/23 05:08:48;;;;;;;0.10;0.10;;;6.70;99.90;;;;;;4961223;28;20227;-75
2023/04/23 05:11:16;;;;;;;0.10;0.10;;;6.90;99.90;;;;;;4943831;28;20046;-74
2023/04/23 05:13:43;;;;;;;0.00;0.00;;;6.80;99.90;;;;;;4961893;28;20345;-72
2023/04/23 05:16:09;;;;;;;2.08;1.95;;;7.00;99.90;;;;;;4962818;28;20113;-73
2023/04/23 05:18:35;;;;;;;0.22;0.22;;;7.10;99.90;;;;;;4962455;28;20052;-72
2023/04/23 05:21:01;;;;;;;0.05;0.05;;;7.20;99.90;;;;;;4963132;28;20676;-72
2023/04/23 05:23:27;;;;;;;0.10;0.10;;;7.30;99.90;;;;;;4944394;28;20027;-73
2023/04/23 05:25:54;;;;;;;0.00;0.00;;;7.40;99.90;;;;;;4962777;28;20335;-72
2023/04/23 05:28:20;;;;;;;0.00;0.00;;;7.60;99.90;;;;;;4962958;28;20320;-73
2023/04/23 05:30:46;;;;;;;0.00;0.00;;;7.70;99.90;;;;;;4961628;28;20105;-72
2023/04/23 05:33:12;;;;;;;0.00;0.00;;;7.90;99.90;;;;;;4961520;28;20478;-72
2023/04/23 05:35:37;;;;;;;0.22;0.22;;;8.10;99.90;;;;;;4962270;28;20027;-73
2023/04/23 05:38:05;;;;;;;0.00;0.00;;;8.30;99.90;;;;;;4961993;28;20027;-73
2023/04/23 05:40:31;;;;;;;0.00;0.00;;;8.40;99.90;;;;;;4962412;28;20037;-72
2023/04/23 05:43:00;;;;;;;0.13;0.13;;;8.50;99.90;;;;;;4943722;28;20027;-73
2023/04/23 05:45:26;;;;;;;0.10;0.10;;;8.60;99.90;;;;;;4963415;28;20046;-72
2023/04/23 05:47:52;;;;;;;0.00;0.00;;;8.80;99.90;;;;;;4946993;28;20031;-72
2023/04/23 05:50:20;;;;;;;0.00;0.00;;;8.90;99.90;;;;;;4962807;28;20057;-73
2023/04/23 05:52:45;;;;;;;0.10;0.10;;;9.10;99.90;;;;;;4962875;28;20023;-79
2023/04/23 05:55:14;;;;;;;0.08;0.08;;;9.00;99.90;;;;;;4967226;28;20088;-76
2023/04/23 05:57:40;;;;;;;0.05;0.05;;;9.20;99.90;;;;;;4951444;28;20095;-75
2023/04/23 06:00:13;;;;;;;0.00;0.00;;;9.30;99.90;;;;;;4967067;28;20034;-75
2023/04/23 06:02:40;;;;;;;0.10;0.10;;;9.20;99.90;;;;;;4943986;28;20303;-73
2023/04/23 06:05:06;;;;;;;0.10;0.10;;;9.40;99.90;;;;;;4963386;28;20259;-75
2023/04/23 06:07:33;;;;;;;0.10;0.10;;;9.40;99.90;;;;;;4966062;28;20054;-73
2023/04/23 06:09:58;;;;;;;0.10;0.10;;;9.50;99.90;;;;;;4964086;28;20038;-73
2023/04/23 06:12:25;;;;;;;0.10;0.10;;;9.70;99.90;;;;;;4967632;28;20023;-73
2023/04/23 06:14:51;;;;;;;0.00;0.00;;;9.80;99.90;;;;;;4968217;28;20580;-74
2023/04/23 06:17:17;;;;;;;0.00;0.00;;;9.90;99.90;;;;;;4969485;28;20337;-75
2023/04/23 06:19:43;;;;;;;0.10;0.10;;;10.10;99.90;;;;;;4968386;28;20071;-73
2023/04/23 06:22:09;;;;;;;0.10;0.10;;;10.20;99.90;;;;;;4963381;28;20050;-74
2023/04/23 06:24:35;;;;;;;0.08;0.08;;;10.40;99.90;;;;;;4965145;28;20019;-72
2023/04/23 06:27:01;;;;;;;0.10;0.10;;;10.50;99.90;;;;;;4963063;28;20034;-73
2023/04/23 06:29:27;;;;;;;0.00;0.00;;;10.60;99.90;;;;;;4962322;28;20352;-71
2023/04/23 06:31:56;;;;;;;0.08;0.08;;;10.70;99.90;;;;;;4961382;28;20035;-73
2023/04/23 06:34:22;;;;;;;0.00;0.00;;;10.90;99.90;;;;;;4961268;28;20022;-74
2023/04/23 06:36:50;;;;;;;0.10;0.10;;;11.10;99.90;;;;;;4960546;28;20019;-73
2023/04/23 06:39:16;;;;;;;0.13;0.13;;;11.10;99.90;;;;;;4962019;28;20041;-73
2023/04/23 06:41:42;;;;;;;0.10;0.10;;;11.30;99.90;;;;;;4961120;28;20023;-74
2023/04/23 06:44:08;;;;;;;0.15;0.15;;;11.50;99.90;;;;;;4959865;28;20031;-73
2023/04/23 06:46:34;;;;;;;0.10;0.10;;;11.50;99.90;;;;;;4959918;28;20031;-76
2023/04/23 06:49:00;;;;;;;0.25;0.25;;;11.60;99.90;;;;;;4959566;28;20069;-76
2023/04/23 06:51:28;;;;;;;0.10;0.10;;;11.80;99.90;;;;;;4958774;28;20035;-73
2023/04/23 06:53:54;;;;;;;0.10;0.10;;;11.90;99.90;;;;;;4958768;28;20242;-72
2023/04/23 06:56:20;;;;;;;0.50;0.50;;;12.10;99.90;;;;;;4958624;28;20062;-73
2023/04/23 06:58:46;;;;;;;0.45;0.45;;;12.30;99.90;;;;;;4958681;28;20492;-74
2023/04/23 07:01:12;;;;;;;0.10;0.10;;;12.40;99.90;;;;;;4958399;28;20058;-73
2023/04/23 07:03:38;;;;;;;0.17;0.17;;;12.60;99.90;;;;;;4958478;28;20222;-72
2023/04/23 07:06:04;;;;;;;0.10;0.10;;;12.60;99.90;;;;;;4958322;28;20085;-72
2023/04/23 07:08:30;;;;;;;0.10;0.10;;;12.70;99.90;;;;;;4940264;28;20038;-73
2023/04/23 07:10:56;;;;;;;0.20;0.20;;;12.90;99.90;;;;;;4958421;28;20083;-78
2023/04/23 07:13:23;;;;;;;0.20;0.20;;;13.10;99.90;;;;;;4961044;28;20039;-73
2023/04/23 07:15:49;;;;;;;0.30;0.30;;;13.20;99.90;;;;;;4961674;28;20526;-75
2023/04/23 07:18:15;;;;;;;3.72;3.53;;;13.40;99.90;;;;;;4961380;28;20034;-73
2023/04/23 07:20:41;;;;;;;0.10;0.10;;;13.40;99.90;;;;;;4961660;28;20055;-75
2023/04/23 07:23:06;;;;;;;0.10;0.10;;;13.60;99.90;;;;;;4961877;28;20018;-74
2023/04/23 07:25:32;;;;;;;0.10;0.10;;;13.80;99.90;;;;;;4961768;28;20041;-73
2023/04/23 07:27:58;;;;;;;0.10;0.10;;;13.90;99.90;;;;;;4961743;28;20153;-73
2023/04/23 07:30:25;;;;;;;0.52;0.52;;;14.00;99.90;;;;;;4961373;28;20031;-73
2023/04/23 07:32:51;;;;;;;0.20;0.20;;;14.10;99.90;;;;;;4961445;28;20015;-73
2023/04/23 07:35:17;;;;;;;0.10;0.10;;;14.40;99.30;;;;;;4961358;28;20644;-74
2023/04/23 07:37:43;;;;;;;0.80;0.80;;;14.30;98.60;;;;;;4961404;28;20216;-75
2023/04/23 07:40:09;;;;;;;0.20;0.20;;;14.30;99.10;;;;;;4961456;28;20038;-77
2023/04/23 07:42:34;;;;;;;5.72;4.00;;;14.40;98.90;;;;;;4961468;28;20360;-75
2023/04/23 07:45:00;;;;;;;0.20;0.20;;;14.60;98.60;;;;;;4961456;28;20023;-75
2023/04/23 07:47:26;;;;;;;0.10;0.10;;;14.70;98.90;;;;;;4961310;28;20023;-77
2023/04/23 07:49:52;;;;;;;0.20;0.20;;;14.80;98.70;;;;;;4961275;28;20030;-76
2023/04/23 07:52:17;;;;;;;0.10;0.10;;;15.10;98.00;;;;;;4961614;28;20035;-83
2023/04/23 07:54:45;;;;;;;0.70;0.70;;;15.20;96.90;;;;;;4961595;28;20031;-79
2023/04/23 07:57:11;;;;;;;1.20;1.20;;;15.50;95.80;;;;;;4961430;28;20295;-73
2023/04/23 07:59:38;;;;;;;4.03;2.63;;;15.60;94.40;;;;;;4961094;28;20026;-80
2023/04/23 08:02:09;;;;;;;0.30;0.30;;;15.60;94.60;;;;;;4961168;28;20019;-76
2023/04/23 08:04:35;;;;;;;0.10;0.10;;;15.80;94.40;;;;;;4961235;28;20371;-78
2023/04/23 08:07:01;;;;;;;0.10;0.10;;;16.00;93.90;;;;;;4960964;28;20348;-81
2023/04/23 08:09:27;;;;;;;3.95;2.40;;;16.10;93.60;;;;;;4965405;28;20281;-74
2023/04/23 08:11:53;;;;;;;0.10;0.10;;;16.30;92.90;;;;;;4961701;28;20031;-76
2023/04/23 08:14:19;;;;;;;0.13;0.13;;;16.60;92.00;;;;;;4960834;28;20182;-76
2023/04/23 08:16:45;;;;;;;0.10;0.10;;;16.70;91.00;;;;;;4960584;28;20098;-73
2023/04/23 08:19:11;;;;;;;1.25;1.23;;;17.00;91.40;;;;;;4960266;28;20479;-77
2023/04/23 08:21:36;;;;;;;4.43;3.45;;;17.20;90.30;;;;;;4960621;28;20039;-74
2023/04/23 08:24:03;;;;;;;0.10;0.10;;;17.40;89.50;;;;;;4960186;28;20204;-75
2023/04/23 08:26:29;;;;;;;3.30;3.13;;;17.60;87.70;;;;;;4960666;28;20034;-74
2023/04/23 08:28:56;;;;;;;0.10;0.10;;;17.60;86.60;;;;;;4960731;28;20015;-77
2023/04/23 08:31:21;;;;;;;0.10;0.10;;;18.00;86.30;;;;;;4946672;28;20644;-74
2023/04/23 08:33:47;;;;;;;0.20;0.20;;;18.00;84.20;;;;;;4960917;28;20019;-75
2023/04/23 08:36:14;;;;;;;0.20;0.20;;;17.90;82.10;;;;;;4961086;28;20089;-78
2023/04/23 08:38:40;;;;;;;0.20;0.20;;;18.00;84.30;;;;;;4960991;28;20485;-75
2023/04/23 08:41:10;;;;;;;0.20;0.20;;;18.10;83.40;;;;;;4955721;28;20039;-76
2023/04/23 08:44:15;;;;;;;0.10;0.10;;;18.40;82.10;;;;;;4961022;28;20106;-76
2023/04/23 08:46:43;;;;;;;0.10;0.10;;;18.60;79.60;;;;;;4960728;28;20019;-75
2023/04/23 08:49:13;;;;;;;0.10;0.10;;;18.90;78.40;;;;;;4955457;28;20627;-76
2023/04/23 08:51:47;;;;;;;1.48;0.95;;;19.10;78.50;;;;;;4959968;28;20050;-75
2023/04/23 08:54:24;;;;;;;1.48;1.45;;;19.20;77.00;;;;;;4960452;28;20033;-73
2023/04/23 08:56:50;;;;;;;0.10;0.10;;;19.20;75.40;;;;;;4960223;28;20015;-76
2023/04/23 08:59:18;;;;;;;0.70;0.70;;;19.40;76.00;;;;;;4955674;28;20038;-74
2023/04/23 09:01:45;;;;;;;0.10;0.10;;;19.50;72.30;;;;;;4960094;28;20018;-75
2023/04/23 09:04:15;;;;;;;0.10;0.10;;;19.60;71.80;;;;;;4960602;28;20030;-74
2023/04/23 09:06:42;;;;;;;0.10;0.10;;;19.60;73.30;;;;;;4960175;28;20030;-74
2023/04/23 09:09:08;;;;;;;0.10;0.10;;;19.70;71.90;;;;;;4960104;28;20109;-78
2023/04/23 09:11:37;;;;;;;0.10;0.10;;;20.00;72.10;;;;;;4960347;28;20039;-74
2023/04/23 09:14:03;;;;;;;0.10;0.10;;;20.00;67.10;;;;;;4960246;28;20575;-73
2023/04/23 09:16:29;;;;;;;0.20;0.20;;;20.10;65.50;;;;;;4960452;28;20027;-74
2023/04/23 09:18:56;;;;;;;0.10;0.10;;;20.20;65.90;;;;;;4959871;28;20031;-74
2023/04/23 09:21:22;;;;;;;0.10;0.10;;;20.30;66.80;;;;;;4960530;28;20041;-74
2023/04/23 09:23:51;;;;;;;0.10;0.10;;;20.40;65.10;;;;;;4960951;28;20031;-72
2023/04/23 09:26:21;;;;;;;0.10;0.10;;;20.50;61.40;;;;;;4966449;28;20655;-73
2023/04/23 09:28:50;;;;;;;0.10;0.10;;;20.50;62.90;;;;;;4961423;28;20023;-73
2023/04/23 09:31:20;;;;;;;0.10;0.10;;;20.60;62.90;;;;;;4959386;28;20031;-78
2023/04/23 09:33:53;;;;;;;0.10;0.10;;;20.80;62.70;;;;;;4951225;28;20397;-77
2023/04/23 09:36:22;;;;;;;0.10;0.10;;;20.80;59.50;;;;;;4959065;28;20086;-73
2023/04/23 09:38:49;;;;;;;0.10;0.10;;;20.80;58.70;;;;;;4959610;28;20248;-73
2023/04/23 09:41:25;;;;;;;0.20;0.20;;;20.90;59.60;;;;;;4959376;28;20522;-73
2023/04/23 09:43:55;;;;;;;0.10;0.10;;;20.90;60.60;;;;;;4959509;28;20113;-73
2023/04/23 09:46:37;;;;;;;0.10;0.10;;;21.00;60.30;;;;;;4959237;28;20022;-78
2023/04/23 09:49:07;;;;;;;0.95;0.95;;;21.30;58.50;;;;;;4959631;28;20062;-74
2023/04/23 09:51:47;;;;;;;0.10;0.10;;;21.10;59.20;;;;;;4959647;28;20041;-73
2023/04/23 09:54:22;;;;;;;0.10;0.10;;;21.50;58.50;;;;;;4962992;28;20023;-75
2023/04/23 09:56:55;;;;;;;0.10;0.10;;;21.10;58.10;;;;;;4953190;28;20023;-74
2023/04/23 09:59:26;;;;;;;0.10;0.10;;;21.00;56.00;;;;;;4961026;28;20070;-73
2023/04/23 10:01:53;;;;;;;0.10;0.10;;;21.00;53.60;;;;;;4959568;28;20614;-74
2023/04/23 10:04:21;;;;;;;0.10;0.10;;;21.10;52.30;;;;;;4960230;28;20029;-74
2023/04/23 10:06:54;;;;;;;0.10;0.10;;;21.20;50.50;;;;;;4959898;28;20027;-75
2023/04/23 10:09:23;;;;;;;0.10;0.10;;;21.40;52.20;;;;;;4959873;28;20023;-74
2023/04/23 10:11:57;;;;;;;0.10;0.10;;;21.60;53.60;;;;;;4951692;28;20708;-73
2023/04/23 10:14:24;;;;;;;0.10;0.10;;;21.70;54.70;;;;;;4959879;28;20584;-79
2023/04/23 10:17:01;;;;;;;0.10;0.10;;;22.00;54.30;;;;;;4959757;28;20100;-75
2023/04/23 10:19:30;;;;;;;0.10;0.10;;;22.20;53.80;;;;;;4959083;28;20071;-71
2023/04/23 10:22:03;;;;;;;0.10;0.10;;;22.00;54.20;;;;;;4959335;28;20693;-73
2023/04/23 10:24:32;;;;;;;0.10;0.10;;;22.30;55.90;;;;;;4942034;28;20509;-73
2023/04/23 10:27:08;;;;;;;0.10;0.10;;;22.30;54.90;;;;;;4942587;28;20038;-79
2023/04/23 10:29:35;;;;;;;0.20;0.20;;;22.40;55.60;;;;;;4958875;28;20031;-79
2023/04/23 10:32:05;;;;;;;0.10;0.10;;;22.40;55.20;;;;;;4958397;28;20232;-72
2023/04/23 10:34:32;;;;;;;0.10;0.10;;;22.50;55.20;;;;;;4958961;28;20023;-75
2023/04/23 10:36:59;;;;;;;0.10;0.10;;;22.60;53.70;;;;;;4959241;28;20019;-76
2023/04/23 10:39:31;;;;;;;0.20;0.20;;;22.70;52.40;;;;;;4959113;28;20018;-72
2023/04/23 10:41:58;;;;;;;0.10;0.10;;;22.70;53.10;;;;;;4958682;28;20110;-76
2023/04/23 10:44:41;;;;;;;0.00;0.00;;;22.90;53.80;;;;;;4959171;28;20126;-75
2023/04/23 10:47:14;;;;;;;0.10;0.10;;;22.70;54.10;;;;;;4944815;28;20034;-81
2023/04/23 10:49:41;;;;;;;0.00;0.00;;;22.40;54.40;;;;;;4962814;28;20050;-73
2023/04/23 10:52:14;;;;;;;0.10;0.10;;;22.00;55.10;;;;;;4963248;28;20070;-75
2023/04/23 10:54:41;;;;;;;0.10;0.10;;;22.30;55.70;;;;;;4962992;28;20037;-79
2023/04/23 10:57:09;;;;;;;0.10;0.10;;;22.40;54.30;;;;;;4963161;28;20023;-80
2023/04/23 10:59:51;;;;;;;0.10;0.10;;;22.70;55.70;;;;;;4945231;28;20027;-73
2023/04/23 11:02:17;;;;;;;0.10;0.10;;;23.30;54.80;;;;;;4962386;28;20031;-74
2023/04/23 11:04:57;;;;;;;0.10;0.10;;;23.50;54.80;;;;;;4962589;28;20030;-77
2023/04/23 11:07:32;;;;;;;0.00;0.00;;;23.80;54.70;;;;;;4962496;28;20078;-80
2023/04/23 11:10:09;;;;;;;0.10;0.10;;;24.00;53.30;;;;;;4945186;28;20478;-77
2023/04/23 11:12:37;;;;;;;0.10;0.10;;;24.20;51.70;;;;;;4962986;28;20110;-73
2023/04/23 11:15:14;;;;;;;0.10;0.10;;;24.30;51.10;;;;;;4962483;28;20050;-72
2023/04/23 11:17:43;;;;;;;0.10;0.10;;;23.30;50.00;;;;;;4961852;28;20058;-72
2023/04/23 11:20:20;;;;;;;4.97;0.73;;;24.90;50.00;;;;;;4961993;28;20101;-78
2023/04/23 11:22:47;;;;;;;0.68;0.68;;;25.00;49.40;;;;;;4962219;28;20667;-73
2023/04/23 11:25:18;;;;;;;3.55;1.88;;;24.40;49.50;;;;;;4962302;28;20106;-76
2023/04/23 11:27:46;;;;;;;2.00;1.42;;;24.60;51.60;;;;;;4962298;28;20015;-74
2023/04/23 11:30:14;;;;;;;0.10;0.10;;;24.80;50.20;;;;;;4962273;28;20057;-73
2023/04/23 11:32:43;;;;;;;0.15;0.15;;;25.00;49.70;;;;;;4961876;28;20769;-72
2023/04/23 11:35:12;;;;;;;0.10;0.10;;;25.30;49.40;;;;;;4962244;28;20635;-71
2023/04/23 11:37:42;;;;;;;0.10;0.10;;;25.50;49.10;;;;;;4961878;28;20023;-76
2023/04/23 11:40:13;;;;;;;0.10;0.10;;;25.60;48.80;;;;;;4962021;28;20018;-73
2023/04/23 11:42:54;;;;;;;0.20;0.20;;;25.40;48.10;;;;;;4962101;28;20260;-73
2023/04/23 11:45:25;;;;;;;0.00;0.00;;;25.50;48.20;;;;;;4961375;28;20485;-72
2023/04/23 11:47:55;;;;;;;0.10;0.10;;;25.70;47.80;;;;;;4961574;28;20042;-73
2023/04/23 11:50:29;;;;;;;0.28;0.28;;;26.00;47.30;;;;;;4961934;28;20110;-73
2023/04/23 11:52:55;;;;;;;0.10;0.10;;;26.00;48.50;;;;;;4961848;28;20023;-74
2023/04/23 11:55:22;;;;;;;0.10;0.10;;;26.00;47.50;;;;;;4943947;28;20118;-73
2023/04/23 11:57:51;;;;;;;0.00;0.00;;;26.20;48.00;;;;;;4961002;28;20030;-73
2023/04/23 12:00:22;;;;;;;0.00;0.00;;;26.30;47.30;;;;;;4961492;28;20662;-76
2023/04/23 12:03:02;;;;;;;0.63;0.30;;;26.30;47.90;;;;;;4961107;28;20675;-73
2023/04/23 12:05:35;;;;;;;0.00;0.00;;;26.40;47.60;;;;;;4961434;28;20030;-73
2023/04/23 12:08:15;;;;;;;1.45;1.45;;;26.30;46.90;;;;;;4944055;28;20114;-74
2023/04/23 12:10:46;;;;;;;0.00;0.00;;;25.40;47.60;;;;;;4960970;28;20056;-73
2023/04/23 12:13:27;;;;;;;1.92;1.08;;;24.70;48.40;;;;;;4943913;28;20025;-72
2023/04/23 12:15:57;;;;;;;1.75;1.25;;;24.50;49.10;;;;;;4960938;28;20023;-73
2023/04/23 12:18:38;;;;;;;0.10;0.10;;;24.20;49.30;;;;;;4943491;28;20027;-74
2023/04/23 12:21:13;;;;;;;0.10;0.10;;;23.80;50.20;;;;;;4960691;28;20119;-73
2023/04/23 12:23:43;;;;;;;0.10;0.10;;;23.30;50.80;;;;;;4961139;28;20019;-76
2023/04/23 12:26:20;;;;;;;0.10;0.10;;;23.40;51.40;;;;;;4943790;28;20086;-72
2023/04/23 12:28:58;;;;;;;0.10;0.10;;;23.00;51.80;;;;;;4961003;28;20053;-73
2023/04/23 12:31:28;;;;;;;2.75;0.90;;;22.90;51.60;;;;;;4961174;28;20057;-79
2023/04/23 12:34:08;;;;;;;0.10;0.10;;;22.70;52.50;;;;;;4943827;28;20019;-72
2023/04/23 12:36:36;;;;;;;0.30;0.30;;;22.80;52.50;;;;;;4961165;28;20688;-73
2023/04/23 12:39:30;;;;;;;0.10;0.10;;;23.20;52.80;;;;;;4961198;28;20105;-75
2023/04/23 12:42:04;;;;;;;0.10;0.10;;;23.60;52.00;;;;;;4960860;28;20026;-80
2023/04/23 12:44:39;;;;;;;0.10;0.10;;;23.80;51.80;;;;;;4943696;28;20027;-74
2023/04/23 12:47:06;;;;;;;0.10;0.10;;;23.80;51.50;;;;;;4961037;28;20509;-76
2023/04/23 12:49:33;;;;;;;0.52;0.47;;;23.80;51.40;;;;;;4960498;28;20042;-72
2023/04/23 12:52:01;;;;;;;0.10;0.10;;;23.80;52.00;;;;;;4960665;28;20062;-72
2023/04/23 12:54:31;;;;;;;0.10;0.10;;;23.50;52.40;;;;;;4960951;28;20057;-72
2023/04/23 12:56:58;;;;;;;0.10;0.10;;;23.40;52.30;;;;;;4960656;28;20554;-72